Time;durP1;ratioP1;P1;durP2;ratioP2;P2;SDS_P1;SDS_P2;PMS_P1;PMS_P2;Temp;Humidity;BMP_temperature;BMP_pressure;BME280_temperature;BME280_humidity;BME280_pressure;Samples;Min_cycle;Max_cycle;Signal;HPM_P1;HPM_P2
2021/12/10 00:02:31;;;;;;;16.98;8.48;;;;;;;-9.81;68.49;100403.88;4924562;29;19915;-82
2021/12/10 00:04:56;;;;;;;17.60;8.48;;;;;;;-9.70;68.44;100403.94;4941598;28;20047;-82
2021/12/10 00:07:23;;;;;;;;;;;;;;;-9.63;68.47;100406.22;4947249;28;20027;-83
2021/12/10 00:09:51;;;;;;;16.00;8.10;;;;;;;-9.59;67.79;100406.63;4948673;29;20341;-83
2021/12/10 00:12:24;;;;;;;15.23;8.60;;;;;;;-9.60;68.00;100394.81;4951292;29;20094;-82
2021/12/10 00:14:51;;;;;;;15.70;8.68;;;;;;;-9.53;68.03;100397.13;4934954;29;20043;-82
2021/12/10 00:17:17;;;;;;;16.40;8.93;;;;;;;-9.61;67.21;100409.78;4937940;28;20041;-82
2021/12/10 00:19:48;;;;;;;;;;;;;;;-9.60;67.34;100397.34;4924338;29;20042;-82
2021/12/10 00:22:41;;;;;;;17.52;8.52;;;;;;;-9.47;68.38;100396.78;4936593;28;19918;-82
2021/12/10 00:25:09;;;;;;;13.80;8.20;;;;;;;-9.57;67.48;100386.69;4927577;29;20043;-81
2021/12/10 00:27:35;;;;;;;16.45;8.85;;;;;;;-9.62;66.68;100383.78;4939165;28;20054;-82
2021/12/10 00:30:10;;;;;;;15.80;8.45;;;;;;;-9.57;67.00;100401.75;4923047;29;20051;-82
2021/12/10 00:32:44;;;;;;;14.32;8.48;;;;;;;-9.60;67.48;100399.84;4924420;28;20081;-83
2021/12/10 00:35:14;;;;;;;14.50;8.88;;;;;;;-9.64;67.33;100395.31;4923006;29;20047;-82
2021/12/10 00:37:40;;;;;;;17.33;9.18;;;;;;;-9.57;68.80;100394.22;4935339;28;20074;-82
2021/12/10 00:40:06;;;;;;;;;;;;;;;-9.63;68.08;100393.66;4937057;29;20085;-81
2021/12/10 00:42:34;;;;;;;14.45;8.27;;;;;;;-9.52;68.78;100382.94;4973997;28;20453;-81
2021/12/10 00:45:00;;;;;;;15.70;9.70;;;;;;;-9.36;67.79;100378.47;4941285;29;20052;-81
2021/12/10 00:47:25;;;;;;;;;;;;;;;-9.40;67.59;100368.03;4939522;29;20047;-82
2021/12/10 00:49:51;;;;;;;14.27;8.43;;;;;;;-9.48;67.85;100382.47;4935863;28;19965;-82
2021/12/10 00:52:18;;;;;;;17.05;8.40;;;;;;;-9.55;68.13;100388.56;4931371;29;20091;-82
2021/12/10 00:54:44;;;;;;;15.65;7.90;;;;;;;-9.48;67.71;100383.34;4921180;28;20037;-83
2021/12/10 00:57:10;;;;;;;14.10;8.05;;;;;;;-9.52;67.58;100393.00;4910366;29;20047;-82
2021/12/10 00:59:36;;;;;;;;;;;;;;;-9.57;67.18;100392.59;4933493;28;20100;-82
2021/12/10 01:02:03;;;;;;;15.02;8.75;;;;;;;-9.60;67.99;100391.44;4942586;28;19918;-82
2021/12/10 01:04:31;;;;;;;15.35;8.75;;;;;;;-9.68;67.21;100389.88;4944071;28;20037;-82
2021/12/10 01:06:58;;;;;;;14.80;8.65;;;;;;;-9.58;68.26;100382.38;4925319;28;20410;-82
2021/12/10 01:09:31;;;;;;;14.05;8.02;;;;;;;-9.50;67.62;100388.97;4938823;29;20054;-82
2021/12/10 01:12:09;;;;;;;16.17;8.70;;;;;;;-9.63;66.88;100383.63;4939396;29;20129;-82
2021/12/10 01:27:08;;;;;;;17.25;9.38;;;;;;;-10.05;67.90;100367.47;4972100;28;20043;-84
2021/12/10 01:28:57;;;;;;;15.57;8.85;;;;;;;-10.16;68.25;100363.16;4968117;28;20046;-86
2021/12/10 01:31:24;;;;;;;13.85;7.88;;;;;;;-9.99;68.76;100385.59;4953536;28;20043;-84
2021/12/10 01:33:51;;;;;;;15.18;8.80;;;;;;;-10.16;69.17;100383.22;4934613;28;20043;-88
2021/12/10 01:36:18;;;;;;;16.23;8.38;;;;;;;-10.09;69.71;100364.56;4955178;28;20042;-86
2021/12/10 01:38:45;;;;;;;14.95;8.40;;;;;;;-9.99;68.86;100375.56;4947190;29;20070;-84
2021/12/10 01:41:14;;;;;;;14.00;7.82;;;;;;;-9.91;68.69;100368.66;4953662;28;20115;-85
2021/12/10 01:43:40;;;;;;;15.55;9.13;;;;;;;-9.85;69.08;100360.78;4931350;28;20049;-85
2021/12/10 01:46:25;;;;;;;21.17;11.50;;;;;;;-9.87;68.85;100387.41;4941679;28;20653;-81
2021/12/10 01:48:53;;;;;;;18.70;10.48;;;;;;;-9.84;68.57;100383.53;4956940;28;20047;-81
2021/12/10 01:51:21;;;;;;;14.90;8.93;;;;;;;-9.80;69.23;100377.16;4941540;28;20062;-81
2021/12/10 01:53:49;;;;;;;13.65;8.02;;;;;;;-9.91;68.59;100378.72;4935378;29;20047;-81
2021/12/10 01:56:21;;;;;;;13.75;7.80;;;;;;;-9.85;68.70;100388.41;4913222;29;20031;-81
2021/12/10 01:58:47;;;;;;;12.57;7.35;;;;;;;-9.91;67.75;100385.38;4933046;29;20039;-81
2021/12/10 02:01:14;;;;;;;;;;;;;;;-9.81;68.82;100387.94;4923291;29;20513;-81
2021/12/10 02:03:40;;;;;;;15.05;7.95;;;;;;;-9.74;69.23;100388.59;4952247;28;19918;-81
2021/12/10 02:06:06;;;;;;;;;;;;;;;-9.67;68.21;100391.63;4957908;28;20042;-81
2021/12/10 02:08:32;;;;;;;13.73;7.57;;;;;;;-9.74;67.53;100388.59;4949567;28;20392;-82
2021/12/10 02:10:59;;;;;;;;;;;;;;;-9.68;68.30;100387.38;4929913;28;20046;-81
2021/12/10 02:13:25;;;;;;;14.95;7.57;;;;;;;-9.74;67.60;100396.13;4945306;28;19917;-81
2021/12/10 02:15:51;;;;;;;12.70;7.35;;;;;;;-9.82;67.91;100382.03;4944485;28;20039;-83
2021/12/10 02:18:17;;;;;;;12.63;7.53;;;;;;;-9.88;67.48;100394.06;4960729;28;20114;-83
2021/12/10 02:20:48;;;;;;;;;;;;;;;-9.92;68.17;100388.63;4945025;28;20207;-82
2021/12/10 02:23:14;;;;;;;12.15;6.90;;;;;;;-9.95;68.20;100381.69;4958655;28;19924;-82
2021/12/10 02:25:39;;;;;;;;;;;;;;;-9.87;68.47;100393.28;4952285;28;20461;-82
2021/12/10 02:28:09;;;;;;;12.40;7.50;;;;;;;-9.86;67.81;100392.53;4954494;29;19926;-82
2021/12/10 02:30:35;;;;;;;13.80;7.75;;;;;;;-9.90;67.60;100392.13;4938976;28;20149;-82
2021/12/10 02:33:00;;;;;;;;;;;;;;;-10.00;67.76;100391.34;4928945;28;20039;-82
2021/12/10 02:35:27;;;;;;;11.27;6.93;;;;;;;-9.98;68.25;100386.47;4960063;28;19921;-81
2021/12/10 02:37:53;;;;;;;13.35;7.22;;;;;;;-9.96;68.47;100379.94;4941835;28;20035;-82
2021/12/10 02:40:19;;;;;;;;;;;;;;;-9.96;67.30;100387.47;4944732;29;20054;-82
2021/12/10 02:42:45;;;;;;;13.77;8.05;;;;;;;-10.06;67.84;100374.88;4956570;29;20373;-81
2021/12/10 02:45:15;;;;;;;13.27;7.97;;;;;;;-10.02;67.63;100377.78;4928261;28;20062;-83
2021/12/10 02:47:41;;;;;;;12.38;8.10;;;;;;;-10.03;67.05;100385.19;4941190;29;20058;-82
2021/12/10 02:50:07;;;;;;;;;;;;;;;-10.16;67.14;100392.38;4939113;29;20039;-82
2021/12/10 02:52:32;;;;;;;13.15;7.57;;;;;;;-10.13;66.96;100393.50;4959691;28;19918;-81
2021/12/10 02:54:59;;;;;;;;;;;;;;;-10.03;67.56;100387.69;4960498;28;20053;-82
2021/12/10 02:57:25;;;;;;;16.50;8.18;;;;;;;-10.02;67.14;100386.94;4975986;28;19913;-81
2021/12/10 02:59:51;;;;;;;14.15;7.70;;;;;;;-10.02;66.75;100387.81;4928040;28;20042;-82
2021/12/10 03:02:17;;;;;;;;;;;;;;;-10.16;67.00;100393.25;4925450;29;20038;-81
2021/12/10 03:04:44;;;;;;;14.82;8.02;;;;;;;-10.27;66.51;100382.28;4947272;28;19966;-82
2021/12/10 03:07:14;;;;;;;14.82;8.32;;;;;;;-10.11;67.84;100376.97;4911360;28;20471;-83
2021/12/10 03:09:45;;;;;;;13.30;7.97;;;;;;;-10.15;66.79;100389.13;4940590;29;20447;-82
2021/12/10 03:12:11;;;;;;;11.88;7.32;;;;;;;-10.07;67.22;100393.19;4939870;28;20050;-82
2021/12/10 03:14:43;;;;;;;32.13;16.42;;;;;;;-10.06;67.43;100390.81;4959612;28;20061;-82
2021/12/10 03:17:12;;;;;;;14.00;7.70;;;;;;;-10.23;66.31;100388.41;4942440;29;20518;-82
2021/12/10 03:19:38;;;;;;;13.70;7.13;;;;;;;-10.33;67.20;100389.25;4959013;28;20129;-82
2021/12/10 03:22:05;;;;;;;;;;;;;;;-10.27;67.55;100404.84;4940877;28;20069;-83
2021/12/10 03:24:31;;;;;;;14.30;7.93;;;;;;;-10.28;66.77;100403.09;4931016;28;19918;-82
2021/12/10 03:27:03;;;;;;;;;;;;;;;-10.23;66.92;100406.84;4960375;28;20113;-82
2021/12/10 03:29:29;;;;;;;12.85;7.65;;;;;;;-10.24;68.06;100399.25;4957832;28;19918;-82
2021/12/10 03:31:56;;;;;;;14.95;7.75;;;;;;;-10.34;67.44;100394.16;4953408;28;20039;-81
2021/12/10 03:34:22;;;;;;;14.27;8.00;;;;;;;-10.35;67.10;100403.31;4925194;29;20043;-82
2021/12/10 03:36:51;;;;;;;;;;;;;;;-10.28;67.16;100400.59;4941857;29;20062;-82
2021/12/10 03:39:18;;;;;;;13.18;7.65;;;;;;;-10.20;67.39;100397.84;4939802;28;19953;-84
2021/12/10 03:41:44;;;;;;;16.17;8.48;;;;;;;-10.28;67.82;100393.06;4930973;28;20074;-82
2021/12/10 03:44:10;;;;;;;;;;;;;;;-10.31;67.29;100402.84;4947560;29;20043;-82
2021/12/10 03:46:36;;;;;;;13.15;7.78;;;;;;;-10.31;67.98;100401.94;4939667;29;19923;-82
2021/12/10 03:49:03;;;;;;;;;;;;;;;-10.28;67.29;100403.09;4931172;29;20043;-81
2021/12/10 03:51:29;;;;;;;17.60;9.65;;;;;;;-10.31;67.33;100401.94;4942171;28;19914;-81
2021/12/10 03:53:55;;;;;;;;;;;;;;;-10.31;68.13;100402.84;4909109;29;20057;-81
2021/12/10 03:56:22;;;;;;;14.63;8.70;;;;;;;-10.45;67.57;100404.84;4942917;28;19973;-82
2021/12/10 03:58:47;;;;;;;14.68;7.65;;;;;;;-10.52;67.46;100419.34;4939471;28;20042;-82
2021/12/10 04:01:14;;;;;;;;;;;;;;;-10.40;68.82;100414.56;4944800;29;20030;-82
2021/12/10 04:03:40;;;;;;;13.03;7.60;;;;;;;-10.36;67.82;100408.16;4954174;28;20389;-82
2021/12/10 04:06:06;;;;;;;14.40;8.52;;;;;;;-10.36;68.51;100414.06;4946092;28;20031;-83
2021/12/10 04:08:32;;;;;;;;;;;;;;;-10.32;68.27;100426.13;4916447;29;20058;-81
2021/12/10 04:10:58;;;;;;;15.60;8.48;;;;;;;-10.31;68.46;100422.91;4957049;28;19960;-82
2021/12/10 04:13:23;;;;;;;;;;;;;;;-10.39;67.84;100428.84;4937252;29;20435;-81
2021/12/10 04:15:49;;;;;;;13.82;7.32;;;;;;;-10.42;68.59;100427.69;4941058;28;19975;-82
2021/12/10 04:18:15;;;;;;;;;;;;;;;-10.40;68.73;100429.59;4956883;28;20074;-82
2021/12/10 04:20:41;;;;;;;14.98;8.32;;;;;;;-10.54;68.23;100419.94;4937263;28;20389;-82
2021/12/10 04:23:09;;;;;;;;;;;;;;;-10.37;68.92;100427.34;4939980;29;20051;-82
2021/12/10 04:25:35;;;;;;;14.63;8.32;;;;;;;-10.32;68.21;100425.25;4939936;29;20366;-82
2021/12/10 04:28:02;;;;;;;;;;;;;;;-10.38;68.40;100443.16;4970837;28;20054;-81
2021/12/10 04:30:35;;;;;;;15.88;8.73;;;;;;;-10.42;68.46;100446.13;4957283;28;20013;-81
2021/12/10 04:33:03;;;;;;;18.15;8.38;;;;;;;-10.50;67.58;100440.41;4954126;28;20047;-82
2021/12/10 04:35:30;;;;;;;14.73;8.30;;;;;;;-10.39;69.16;100438.00;4916281;29;20447;-82
2021/12/10 04:37:58;;;;;;;15.07;8.40;;;;;;;-10.38;67.86;100439.75;4927997;28;20569;-84
2021/12/10 04:40:23;;;;;;;;;;;;;;;-10.34;67.91;100451.84;4944419;28;20069;-82
2021/12/10 04:42:50;;;;;;;13.55;8.27;;;;;;;-10.38;68.00;100430.63;4957079;29;19980;-82
2021/12/10 04:45:18;;;;;;;12.98;7.80;;;;;;;-10.34;69.13;100442.69;4925237;29;20106;-84
2021/12/10 04:47:45;;;;;;;13.95;7.80;;;;;;;-10.31;68.41;100453.00;4940256;29;20070;-81
2021/12/10 04:50:14;;;;;;;13.10;7.72;;;;;;;-10.30;68.70;100453.88;4939483;29;20038;-83
2021/12/10 04:52:39;;;;;;;13.93;7.65;;;;;;;-10.23;67.97;100446.13;4908651;29;20053;-81
2021/12/10 04:55:06;;;;;;;;;;;;;;;-10.23;67.86;100447.00;4924968;29;20418;-82
2021/12/10 04:57:31;;;;;;;15.57;8.38;;;;;;;-10.41;67.68;100442.88;4940615;29;19918;-81
2021/12/10 04:59:57;;;;;;;;;;;;;;;-10.52;68.83;100451.94;4939682;29;20045;-80
2021/12/10 05:02:23;;;;;;;14.38;7.70;;;;;;;-10.54;68.93;100453.41;4955063;29;20313;-81
2021/12/10 05:04:49;;;;;;;;;;;;;;;-10.50;69.31;100459.59;4939301;29;20065;-82
2021/12/10 05:07:16;;;;;;;11.90;7.38;;;;;;;-10.56;68.49;100431.47;4954735;29;19918;-83
2021/12/10 05:09:41;;;;;;;13.38;8.02;;;;;;;-10.63;67.99;100452.56;4907503;29;20066;-81
2021/12/10 05:12:07;;;;;;;;;;;;;;;-10.66;69.01;100452.31;4923776;29;20047;-81
2021/12/10 05:14:33;;;;;;;12.68;7.50;;;;;;;-10.62;68.51;100463.50;4955569;29;19949;-82
2021/12/10 05:17:03;;;;;;;;;;;;;;;-10.45;69.05;100457.50;4939715;29;20050;-82
2021/12/10 05:19:29;;;;;;;14.45;7.78;;;;;;;-10.52;68.95;100449.44;4955390;28;19943;-81
2021/12/10 05:21:54;;;;;;;;;;;;;;;-10.40;68.13;100459.69;4939807;29;20541;-82
2021/12/10 05:24:20;;;;;;;13.45;7.53;;;;;;;-10.38;68.55;100460.72;4950520;28;19925;-81
2021/12/10 05:26:46;;;;;;;;;;;;;;;-10.28;69.03;100467.44;4924189;29;20057;-82
2021/12/10 05:29:12;;;;;;;12.32;7.65;;;;;;;-10.34;67.92;100465.25;4905383;28;19940;-82
2021/12/10 05:31:39;;;;;;;;;;;;;;;-10.33;68.14;100466.16;4913268;29;20058;-80
2021/12/10 05:34:05;;;;;;;17.05;7.90;;;;;;;-10.30;68.87;100467.31;4938779;28;19918;-80
2021/12/10 05:36:30;;;;;;;;;;;;;;;-10.20;68.70;100470.63;4923722;29;20101;-81
2021/12/10 05:38:56;;;;;;;12.55;7.47;;;;;;;-10.39;68.23;100468.97;4928298;29;20417;-80
2021/12/10 05:41:22;;;;;;;;;;;;;;;-10.41;68.82;100465.44;4942720;28;20086;-79
2021/12/10 05:43:48;;;;;;;14.40;7.55;;;;;;;-10.43;68.49;100463.56;4923530;29;20374;-82
2021/12/10 05:46:15;;;;;;;;;;;;;;;-10.44;67.76;100480.22;4919987;28;20050;-80
2021/12/10 05:48:41;;;;;;;15.75;7.20;;;;;;;-10.53;67.57;100479.38;4964262;28;19925;-82
2021/12/10 05:51:07;;;;;;;;;;;;;;;-10.50;68.90;100480.53;4908488;29;20543;-81
2021/12/10 05:53:33;;;;;;;13.27;7.30;;;;;;;-10.51;68.03;100478.75;4939704;29;20381;-82
2021/12/10 05:55:58;;;;;;;;;;;;;;;-10.41;68.65;100498.03;4931849;29;20542;-81
2021/12/10 05:58:24;;;;;;;13.68;7.28;;;;;;;-10.33;68.27;100498.75;4938797;28;19937;-83
2021/12/10 06:01:10;;;;;;;;;;;;;;;-10.45;66.67;100503.50;4939377;29;20086;-80
2021/12/10 06:03:37;;;;;;;11.80;6.63;;;;;;;-10.31;68.16;100493.16;4923828;29;19993;-81
2021/12/10 06:06:03;;;;;;;17.52;7.63;;;;;;;-10.50;67.20;100479.66;4934309;28;20449;-82
2021/12/10 06:08:29;;;;;;;14.80;8.18;;;;;;;-10.53;66.79;100490.28;4908246;28;20050;-81
2021/12/10 06:10:55;;;;;;;;;;;;;;;-10.46;67.54;100500.88;4935080;29;20043;-80
2021/12/10 06:13:21;;;;;;;13.77;7.60;;;;;;;-10.44;67.51;100490.25;4969657;28;19918;-81
2021/12/10 06:15:46;;;;;;;;;;;;;;;-10.30;67.81;100499.03;4930761;29;20031;-80
2021/12/10 06:18:12;;;;;;;13.77;7.72;;;;;;;-10.29;66.83;100495.78;4929860;28;20308;-82
2021/12/10 06:20:42;;;;;;;;;;;;;;;-10.36;67.22;100498.47;4941665;28;20067;-82
2021/12/10 06:23:08;;;;;;;15.55;7.25;;;;;;;-10.51;67.21;100483.78;4948307;29;19918;-82
2021/12/10 06:25:33;;;;;;;;;;;;;;;-10.51;67.03;100487.91;4940111;28;20035;-80
2021/12/10 06:27:59;;;;;;;17.42;10.30;;;;;;;-10.35;67.51;100493.59;4927514;29;19922;-83
2021/12/10 06:30:28;;;;;;;;;;;;;;;-10.39;67.29;100490.69;4933785;29;20038;-82
2021/12/10 06:32:54;;;;;;;14.15;7.82;;;;;;;-10.39;66.75;100495.69;4926302;29;19949;-82
2021/12/10 06:35:20;;;;;;;;;;;;;;;-10.45;67.00;100493.47;4940659;29;20046;-82
2021/12/10 06:37:46;;;;;;;12.98;7.75;;;;;;;-10.58;66.96;100496.50;4939441;29;19969;-81
2021/12/10 06:40:14;;;;;;;14.70;7.40;;;;;;;-10.40;67.62;100496.41;4923122;29;20101;-81
2021/12/10 06:42:40;;;;;;;10.75;7.00;;;;;;;-10.45;66.85;100502.63;4924295;29;20059;-82
2021/12/10 06:45:07;;;;;;;;;;;;;;;-10.45;67.15;100506.03;4925204;29;20051;-82
2021/12/10 06:47:33;;;;;;;;;;;;;;;-10.29;66.66;100506.69;4926827;29;19922;-83
2021/12/10 06:49:59;;;;;;;11.73;7.32;;;;;;;-10.35;66.97;100492.72;4924935;29;19973;-82
2021/12/10 06:52:25;;;;;;;;;;;;;;;-10.20;66.45;100501.59;4924914;29;20047;-83
2021/12/10 06:54:50;;;;;;;12.82;6.78;;;;;;;-10.23;65.91;100508.84;4924553;29;19914;-82
2021/12/10 06:57:16;;;;;;;;;;;;;;;-10.24;67.12;100502.09;4943344;29;20046;-82
2021/12/10 06:59:41;;;;;;;15.13;7.40;;;;;;;-10.38;65.87;100505.84;4927058;29;19965;-82
2021/12/10 07:02:07;;;;;;;;;;;;;;;-10.35;66.80;100505.28;4943271;29;20131;-83
2021/12/10 07:04:34;;;;;;;13.60;6.95;;;;;;;-10.37;66.41;100502.59;4943938;29;19922;-82
2021/12/10 07:07:00;;;;;;;13.25;7.05;;;;;;;-10.18;66.66;100496.72;4929414;29;20141;-82
2021/12/10 07:09:28;;;;;;;;;;;;;;;-9.99;66.50;100515.19;4934069;29;20090;-84
2021/12/10 07:11:54;;;;;;;20.90;6.85;;;;;;;-9.95;66.18;100522.25;4930976;29;19949;-85
2021/12/10 07:14:20;;;;;;;16.63;6.40;;;;;;;-9.90;66.87;100510.09;4929128;29;20545;-82
2021/12/10 07:16:46;;;;;;;11.32;6.60;;;;;;;-9.92;65.47;100509.97;4929824;29;20190;-82
2021/12/10 07:19:13;;;;;;;12.52;7.20;;;;;;;-9.82;65.13;100512.56;4927946;29;20486;-82
2021/12/10 07:21:39;;;;;;;11.73;7.05;;;;;;;-9.87;64.99;100508.75;4939377;28;20043;-82
2021/12/10 07:24:07;;;;;;;;;;;;;;;-9.72;65.72;100520.16;4948644;28;20462;-82
2021/12/10 07:26:33;;;;;;;11.25;6.30;;;;;;;-9.61;66.26;100513.59;4963721;28;19926;-84
2021/12/10 07:28:58;;;;;;;;;;;;;;;-9.42;65.45;100520.25;4949797;28;20127;-82
2021/12/10 07:31:24;;;;;;;13.85;7.00;;;;;;;-9.28;65.47;100525.75;4946685;28;19918;-84
2021/12/10 07:33:50;;;;;;;;;;;;;;;-9.17;65.52;100524.16;4931313;28;20038;-82
2021/12/10 07:36:16;;;;;;;13.73;6.47;;;;;;;-9.35;64.25;100505.84;4979020;28;19926;-84
2021/12/10 07:38:42;;;;;;;14.50;6.78;;;;;;;-9.15;66.33;100526.81;4929795;28;20387;-83
2021/12/10 07:41:08;;;;;;;;;;;;;;;-9.06;64.99;100530.13;4945502;28;20062;-83
2021/12/10 07:43:35;;;;;;;11.70;6.38;;;;;;;-9.10;64.33;100513.03;4977402;28;19925;-83
2021/12/10 07:46:01;;;;;;;12.32;6.75;;;;;;;-8.93;65.92;100515.38;4944596;28;20520;-81
2021/12/10 07:48:27;;;;;;;;;;;;;;;-8.84;65.14;100513.63;4961419;28;20113;-85
2021/12/10 07:51:06;;;;;;;11.38;6.47;;;;;;;-8.93;64.52;100517.88;4961161;28;19965;-82
2021/12/10 07:53:32;;;;;;;13.20;6.85;;;;;;;-8.86;64.09;100507.56;4931273;28;20051;-82
2021/12/10 07:56:01;;;;;;;13.57;7.20;;;;;;;-8.85;63.46;100508.47;4929587;28;20042;-81
2021/12/10 07:58:28;;;;;;;14.90;6.50;;;;;;;-8.81;64.55;100503.81;4931431;28;20038;-81
2021/12/10 08:00:53;;;;;;;13.00;6.88;;;;;;;-8.63;64.25;100513.69;4930230;28;20129;-81
2021/12/10 08:03:19;;;;;;;;;;;;;;;-8.56;64.33;100518.50;4930384;28;20078;-82
2021/12/10 08:05:45;;;;;;;15.57;6.40;;;;;;;-8.47;64.90;100516.75;4964528;28;19922;-83
2021/12/10 08:08:11;;;;;;;14.88;7.10;;;;;;;-8.45;63.85;100497.63;4912975;28;20405;-83
2021/12/10 08:10:36;;;;;;;;;;;;;;;-8.32;63.47;100514.63;4932181;28;20085;-82
2021/12/10 08:13:02;;;;;;;14.27;6.80;;;;;;;-8.27;64.52;100515.88;4979593;28;19918;-83
2021/12/10 08:15:28;;;;;;;;;;;;;;;-8.34;64.40;100516.97;4946641;28;20053;-82
2021/12/10 08:17:54;;;;;;;13.60;7.93;;;;;;;-8.34;63.66;100506.91;4979099;28;19917;-82
2021/12/10 08:20:21;;;;;;;;;;;;;;;-8.22;64.03;100518.00;4947190;28;20069;-82
2021/12/10 08:22:47;;;;;;;13.77;7.07;;;;;;;-8.09;65.01;100521.56;4963411;28;20001;-83
2021/12/10 08:25:13;;;;;;;;;;;;;;;-8.12;64.60;100516.25;4931170;28;20130;-82
2021/12/10 08:27:39;;;;;;;15.52;7.45;;;;;;;-8.06;65.31;100505.09;4947532;28;19928;-83
2021/12/10 08:30:06;;;;;;;14.15;6.85;;;;;;;-8.00;63.95;100500.53;4932722;28;20125;-83
2021/12/10 08:32:32;;;;;;;15.45;7.70;;;;;;;-8.01;63.83;100506.34;4947340;28;20473;-83
2021/12/10 08:34:58;;;;;;;;;;;;;;;-7.98;63.80;100506.56;4946345;28;20035;-82
2021/12/10 08:37:24;;;;;;;15.70;7.35;;;;;;;-7.88;62.95;100507.31;4961702;28;20020;-82
2021/12/10 08:39:50;;;;;;;;;;;;;;;-7.93;64.17;100504.44;4947409;28;20046;-82
2021/12/10 08:42:16;;;;;;;12.98;6.78;;;;;;;-7.94;64.78;100495.13;4960588;28;20012;-83
2021/12/10 08:44:43;;;;;;;12.52;6.65;;;;;;;-7.98;63.93;100493.09;4945614;28;20065;-83
2021/12/10 08:47:12;;;;;;;12.73;6.57;;;;;;;-7.91;63.72;100505.47;4931326;28;20045;-83
2021/12/10 08:49:38;;;;;;;10.75;6.03;;;;;;;-7.78;63.69;100503.19;4944698;28;20442;-82
2021/12/10 08:52:06;;;;;;;12.98;6.50;;;;;;;-7.77;64.45;100504.94;4961395;28;20046;-83
2021/12/10 08:54:32;;;;;;;11.27;6.20;;;;;;;-7.74;63.76;100496.78;4930642;28;20038;-84
2021/12/10 08:56:58;;;;;;;;;;;;;;;-7.63;63.74;100508.59;4944589;28;20486;-82
2021/12/10 08:59:24;;;;;;;14.55;6.80;;;;;;;-7.63;64.12;100503.53;4975929;28;19914;-82
2021/12/10 09:01:53;;;;;;;17.15;8.23;;;;;;;-7.52;64.69;100496.84;4929406;28;20047;-81
2021/12/10 09:04:19;;;;;;;17.00;7.13;;;;;;;-7.53;63.79;100495.09;4932765;28;20034;-85
2021/12/10 09:06:48;;;;;;;16.45;7.88;;;;;;;-7.53;63.09;100495.09;4954236;28;20054;-84
2021/12/10 09:09:15;;;;;;;14.13;6.80;;;;;;;-7.48;63.20;100493.81;4937263;28;20125;-84
2021/12/10 09:11:43;;;;;;;13.85;6.90;;;;;;;-7.40;63.23;100487.75;4949417;28;20541;-82
2021/12/10 09:14:10;;;;;;;11.80;6.57;;;;;;;-7.37;63.66;100495.56;4932171;28;20034;-83
2021/12/10 09:16:36;;;;;;;14.43;6.93;;;;;;;-7.39;63.10;100499.59;4945731;28;20074;-83
2021/12/10 09:19:05;;;;;;;15.15;7.63;;;;;;;-7.53;62.99;100490.94;4944341;28;20082;-83
2021/12/10 09:21:32;;;;;;;14.30;7.50;;;;;;;-7.40;63.72;100500.34;4928236;29;20067;-83
2021/12/10 09:24:03;;;;;;;15.30;7.18;;;;;;;-7.36;63.26;100489.75;4948023;28;20043;-82
2021/12/10 09:26:31;;;;;;;13.65;7.18;;;;;;;-7.38;62.61;100501.34;4942954;28;20045;-84
2021/12/10 09:28:57;;;;;;;13.07;6.88;;;;;;;-7.36;63.30;100501.50;4926254;28;20517;-83
2021/12/10 09:31:24;;;;;;;13.38;7.35;;;;;;;-7.17;63.90;100513.16;4926167;29;20066;-85
2021/12/10 09:33:55;;;;;;;14.82;7.22;;;;;;;-7.09;63.31;100500.28;4935800;29;20098;-83
2021/12/10 09:36:21;;;;;;;13.57;6.88;;;;;;;-7.06;62.66;100495.47;4912006;28;20039;-83
2021/12/10 09:38:46;;;;;;;13.50;7.22;;;;;;;-6.94;62.97;100496.44;4937137;28;20066;-83
2021/12/10 09:41:12;;;;;;;10.30;6.13;;;;;;;-6.97;62.17;100501.22;4945075;28;20538;-81
2021/12/10 09:43:38;;;;;;;;;;;;;;;-6.77;63.39;100501.16;4924982;29;20068;-83
2021/12/10 09:46:04;;;;;;;13.52;6.70;;;;;;;-6.86;62.22;100490.34;4971726;28;19924;-83
2021/12/10 09:48:30;;;;;;;11.63;6.90;;;;;;;-6.73;62.70;100503.16;4927126;29;20557;-81
2021/12/10 09:50:58;;;;;;;10.63;6.40;;;;;;;-6.63;63.10;100503.88;4931171;29;20051;-83
2021/12/10 09:53:25;;;;;;;12.65;7.18;;;;;;;-6.63;62.79;100496.28;4955530;28;20049;-83
2021/12/10 09:55:51;;;;;;;10.85;6.22;;;;;;;-6.57;62.71;100497.63;4912652;29;20387;-83
2021/12/10 09:58:17;;;;;;;12.90;6.93;;;;;;;-6.61;61.74;100494.75;4909191;28;20090;-82
2021/12/10 10:00:45;;;;;;;;;;;;;;;-6.50;61.84;100504.03;4930302;28;20094;-85
2021/12/10 10:03:11;;;;;;;14.00;6.90;;;;;;;-6.37;63.33;100508.38;4949406;28;20464;-82
2021/12/10 10:05:40;;;;;;;11.85;6.38;;;;;;;-6.36;62.34;100492.47;4943053;28;20093;-82
2021/12/10 10:08:07;;;;;;;36.00;17.85;;;;;;;-6.30;61.91;100497.97;4935539;29;20426;-83
2021/12/10 10:10:34;;;;;;;20.35;6.70;;;;;;;-6.23;61.83;100502.72;4941179;28;20613;-86
2021/12/10 10:13:00;;;;;;;11.60;6.65;;;;;;;-6.34;61.26;100508.59;4912926;29;20503;-81
2021/12/10 10:15:28;;;;;;;12.00;6.22;;;;;;;-6.23;62.58;100513.72;4931569;29;20051;-84
2021/12/10 10:17:55;;;;;;;10.30;6.03;;;;;;;-6.23;62.67;100513.72;4915235;28;20386;-83
2021/12/10 10:20:21;;;;;;;14.30;6.53;;;;;;;-6.29;60.94;100510.72;4961148;28;20050;-83
2021/12/10 10:22:47;;;;;;;13.45;7.10;;;;;;;-6.33;61.33;100510.34;4964704;28;20021;-83
2021/12/10 10:25:13;;;;;;;14.23;6.70;;;;;;;-6.28;61.87;100504.88;4951603;28;20127;-84
2021/12/10 10:27:40;;;;;;;12.65;5.80;;;;;;;-6.31;61.74;100518.94;4942846;29;20463;-83
2021/12/10 10:30:25;;;;;;;13.35;6.97;;;;;;;-6.20;62.03;100518.97;4946624;28;20085;-82
2021/12/10 10:32:52;;;;;;;11.13;5.78;;;;;;;-6.10;62.62;100519.69;4962201;28;20097;-83
2021/12/10 10:35:22;;;;;;;12.18;6.82;;;;;;;-6.09;62.69;100517.28;4949903;28;20090;-82
2021/12/10 10:37:48;;;;;;;12.32;6.00;;;;;;;-6.17;61.44;100519.22;4946318;28;20102;-85
2021/12/10 10:40:18;;;;;;;10.40;5.97;;;;;;;-6.12;62.18;100526.28;4944351;29;20086;-82
2021/12/10 10:42:45;;;;;;;12.07;6.43;;;;;;;-6.05;62.12;100520.91;4954026;29;20063;-82
2021/12/10 10:45:17;;;;;;;16.92;7.18;;;;;;;-6.13;61.88;100511.91;4931571;29;20602;-82
2021/12/10 10:47:45;;;;;;;13.27;6.90;;;;;;;-6.16;61.67;100505.81;4945658;29;20047;-84
2021/12/10 10:50:34;;;;;;;13.68;6.70;;;;;;;-6.05;62.84;100518.38;4942841;29;20044;-84
2021/12/10 10:53:07;;;;;;;14.25;6.82;;;;;;;-5.92;62.85;100527.00;4941648;28;20055;-81
2021/12/10 10:55:50;;;;;;;15.07;7.10;;;;;;;-5.95;61.72;100523.38;4982792;28;20058;-82
2021/12/10 10:58:17;;;;;;;13.30;6.55;;;;;;;-5.92;62.09;100518.53;4949503;28;20425;-84
2021/12/10 11:01:13;;;;;;;10.40;6.10;;;;;;;-5.98;61.79;100520.59;4940702;29;20042;-83
2021/12/10 11:03:44;;;;;;;19.25;11.77;;;;;;;-5.99;62.52;100511.28;4943903;28;20406;-82
2021/12/10 11:06:16;;;;;;;18.27;9.55;;;;;;;-5.90;62.72;100504.34;4946309;29;20039;-84
2021/12/10 11:08:47;;;;;;;15.32;7.50;;;;;;;-5.79;63.35;100512.72;4930928;29;20070;-83
2021/12/10 11:11:19;;;;;;;14.32;7.50;;;;;;;-5.83;62.31;100506.53;4950208;28;20117;-83
2021/12/10 11:13:47;;;;;;;13.60;7.35;;;;;;;-5.88;63.32;100495.22;4942526;29;20133;-82
2021/12/10 11:16:15;;;;;;;11.32;6.47;;;;;;;-5.81;62.67;100502.50;4937403;28;20513;-83
2021/12/10 11:18:45;;;;;;;11.70;6.35;;;;;;;-5.84;62.93;100509.84;4947064;28;20466;-83
2021/12/10 11:21:11;;;;;;;10.48;5.97;;;;;;;-5.80;63.37;100505.91;4979405;28;20066;-82
2021/12/10 11:23:39;;;;;;;12.82;6.55;;;;;;;-5.83;63.15;100491.38;4942812;29;20035;-81
2021/12/10 11:26:05;;;;;;;19.50;6.43;;;;;;;-5.79;62.00;100495.91;4928982;29;20126;-84
2021/12/10 11:28:32;;;;;;;13.60;6.53;;;;;;;-5.93;61.80;100486.47;4941385;29;20455;-83
2021/12/10 11:31:03;;;;;;;10.70;5.75;;;;;;;-5.88;63.57;100497.75;4933330;29;20133;-84
2021/12/10 11:33:36;;;;;;;15.05;6.18;;;;;;;-5.97;63.40;100507.22;4939008;28;20039;-86
2021/12/10 11:36:08;;;;;;;14.38;5.80;;;;;;;-5.93;62.98;100499.09;4952480;28;20126;-84
2021/12/10 11:38:35;;;;;;;12.80;5.80;;;;;;;-5.90;62.61;100509.41;4936918;29;20075;-85
2021/12/10 11:41:09;;;;;;;13.18;6.30;;;;;;;-6.04;61.54;100489.84;4951596;28;20915;-83
2021/12/10 11:49:04;;;;;;;10.75;5.63;;;;;;;-6.20;62.28;100493.72;4973371;28;20129;-83
2021/12/10 11:51:39;;;;;;;9.57;6.13;;;;;;;-6.30;62.69;100508.97;4957969;29;20047;-83